sensor_id;sensor_type;location;lat;lon;timestamp;pressure;altitude;pressure_sealevel;temperature;humidity
16120;BME280;12670;53.502;10.252;2022-09-12T00:00:09;101477.03;;;15.19;100.00
16120;BME280;12670;53.502;10.252;2022-09-12T00:03:12;101473.88;;;15.11;100.00
16120;BME280;12670;53.502;10.252;2022-09-12T00:06:17;101468.53;;;15.11;100.00
16120;BME280;12670;53.502;10.252;2022-09-12T00:09:23;101474.06;;;15.26;99.78
16120;BME280;12670;53.502;10.252;2022-09-12T00:12:27;101470.97;;;15.16;100.00
16120;BME280;12670;53.502;10.252;2022-09-12T00:15:30;101469.00;;;15.02;100.00
16120;BME280;12670;53.502;10.252;2022-09-12T00:18:32;101466.78;;;15.10;100.00
16120;BME280;12670;53.502;10.252;2022-09-12T00:21:37;101465.19;;;15.06;99.97
16120;BME280;12670;53.502;10.252;2022-09-12T00:24:40;101474.47;;;14.99;100.00
16120;BME280;12670;53.502;10.252;2022-09-12T00:27:43;101461.63;;;14.88;100.00
16120;BME280;12670;53.502;10.252;2022-09-12T00:30:47;101459.91;;;14.87;100.00
16120;BME280;12670;53.502;10.252;2022-09-12T00:33:50;101462.91;;;14.99;100.00
16120;BME280;12670;53.502;10.252;2022-09-12T00:36:52;101463.78;;;14.99;100.00
16120;BME280;12670;53.502;10.252;2022-09-12T00:39:56;101457.88;;;14.92;99.12
16120;BME280;12670;53.502;10.252;2022-09-12T00:43:00;101451.22;;;14.82;99.09
16120;BME280;12670;53.502;10.252;2022-09-12T00:46:06;101459.31;;;14.81;99.28
16120;BME280;12670;53.502;10.252;2022-09-12T00:49:17;101462.94;;;14.80;99.10
16120;BME280;12670;53.502;10.252;2022-09-12T00:52:26;101452.69;;;14.71;99.08
16120;BME280;12670;53.502;10.252;2022-09-12T00:55:34;101449.53;;;14.62;99.73
16120;BME280;12670;53.502;10.252;2022-09-12T00:58:42;101448.28;;;14.70;98.85
16120;BME280;12670;53.502;10.252;2022-09-12T01:01:49;101443.81;;;14.51;99.67
16120;BME280;12670;53.502;10.252;2022-09-12T01:04:52;101445.13;;;14.61;99.50
16120;BME280;12670;53.502;10.252;2022-09-12T01:07:56;101447.59;;;14.66;98.86
16120;BME280;12670;53.502;10.252;2022-09-12T01:10:58;101441.59;;;14.61;98.60
16120;BME280;12670;53.502;10.252;2022-09-12T01:14:02;101428.81;;;14.68;98.39
16120;BME280;12670;53.502;10.252;2022-09-12T01:17:05;101434.78;;;14.73;98.13
16120;BME280;12670;53.502;10.252;2022-09-12T01:20:27;101441.63;;;14.59;98.55
16120;BME280;12670;53.502;10.252;2022-09-12T01:27:29;101435.53;;;14.57;98.02
16120;BME280;12670;53.502;10.252;2022-09-12T01:30:43;101440.13;;;14.54;97.99
16120;BME280;12670;53.502;10.252;2022-09-12T01:33:54;101434.91;;;14.32;98.89
16120;BME280;12670;53.502;10.252;2022-09-12T01:37:03;101431.00;;;14.20;99.45
16120;BME280;12670;53.502;10.252;2022-09-12T01:40:13;101427.59;;;14.17;98.61
16120;BME280;12670;53.502;10.252;2022-09-12T01:43:25;101429.69;;;14.10;99.96
16120;BME280;12670;53.502;10.252;2022-09-12T01:46:38;101430.13;;;14.20;98.41
16120;BME280;12670;53.502;10.252;2022-09-12T01:49:51;101426.94;;;14.30;98.21
16120;BME280;12670;53.502;10.252;2022-09-12T01:52:59;101422.19;;;14.18;98.77
16120;BME280;12670;53.502;10.252;2022-09-12T01:56:08;101423.56;;;14.27;97.30
16120;BME280;12670;53.502;10.252;2022-09-12T01:59:17;101421.69;;;14.10;98.35
16120;BME280;12670;53.502;10.252;2022-09-12T02:02:27;101426.63;;;13.99;98.98
16120;BME280;12670;53.502;10.252;2022-09-12T02:05:34;101421.78;;;14.27;97.90
16120;BME280;12670;53.502;10.252;2022-09-12T02:08:41;101411.19;;;14.26;97.40
16120;BME280;12670;53.502;10.252;2022-09-12T02:11:46;101412.22;;;14.03;98.01
16120;BME280;12670;53.502;10.252;2022-09-12T02:14:54;101412.56;;;13.95;98.27
16120;BME280;12670;53.502;10.252;2022-09-12T02:18:04;101416.69;;;14.02;97.88
16120;BME280;12670;53.502;10.252;2022-09-12T02:21:07;101410.66;;;14.18;97.35
16120;BME280;12670;53.502;10.252;2022-09-12T02:24:13;101405.66;;;14.10;97.00
16120;BME280;12670;53.502;10.252;2022-09-12T02:27:19;101413.78;;;13.88;97.93
16120;BME280;12670;53.502;10.252;2022-09-12T02:30:23;101410.34;;;14.05;97.95
16120;BME280;12670;53.502;10.252;2022-09-12T02:33:31;101395.06;;;14.08;97.95
16120;BME280;12670;53.502;10.252;2022-09-12T02:36:45;101406.31;;;13.96;97.41
16120;BME280;12670;53.502;10.252;2022-09-12T02:39:50;101404.31;;;14.01;97.62
16120;BME280;12670;53.502;10.252;2022-09-12T02:42:56;101404.16;;;14.04;97.04
16120;BME280;12670;53.502;10.252;2022-09-12T02:45:59;101400.31;;;13.91;97.09
16120;BME280;12670;53.502;10.252;2022-09-12T02:49:03;101403.09;;;13.88;97.08
16120;BME280;12670;53.502;10.252;2022-09-12T02:52:06;101397.66;;;13.91;96.96
16120;BME280;12670;53.502;10.252;2022-09-12T02:55:09;101396.13;;;13.85;96.82
16120;BME280;12670;53.502;10.252;2022-09-12T02:58:15;101392.03;;;13.77;97.33
16120;BME280;12670;53.502;10.252;2022-09-12T03:01:28;101395.34;;;13.63;98.19
16120;BME280;12670;53.502;10.252;2022-09-12T03:04:56;101390.47;;;13.73;97.45
16120;BME280;12670;53.502;10.252;2022-09-12T03:12:00;101387.84;;;13.71;96.93
16120;BME280;12670;53.502;10.252;2022-09-12T03:15:11;101390.28;;;13.57;97.48
16120;BME280;12670;53.502;10.252;2022-09-12T03:18:22;101388.31;;;13.81;96.93
16120;BME280;12670;53.502;10.252;2022-09-12T03:21:32;101383.81;;;13.63;96.86
16120;BME280;12670;53.502;10.252;2022-09-12T03:24:46;101388.72;;;13.72;96.97
16120;BME280;12670;53.502;10.252;2022-09-12T03:27:55;101393.69;;;13.60;97.47
16120;BME280;12670;53.502;10.252;2022-09-12T03:30:59;101391.59;;;13.47;97.24
16120;BME280;12670;53.502;10.252;2022-09-12T03:34:02;101389.88;;;13.66;96.55
16120;BME280;12670;53.502;10.252;2022-09-12T03:37:06;101393.13;;;13.52;96.88
16120;BME280;12670;53.502;10.252;2022-09-12T03:40:11;101401.94;;;13.54;97.01
16120;BME280;12670;53.502;10.252;2022-09-12T03:43:13;101403.69;;;13.55;97.06
16120;BME280;12670;53.502;10.252;2022-09-12T03:46:16;101402.00;;;13.53;96.83
16120;BME280;12670;53.502;10.252;2022-09-12T03:49:18;101395.28;;;13.44;97.01
16120;BME280;12670;53.502;10.252;2022-09-12T03:52:22;101402.72;;;13.36;97.48
16120;BME280;12670;53.502;10.252;2022-09-12T03:55:25;101393.59;;;13.42;96.79
16120;BME280;12670;53.502;10.252;2022-09-12T03:58:29;101404.84;;;13.48;96.96
16120;BME280;12670;53.502;10.252;2022-09-12T04:01:33;101409.69;;;13.60;95.92
16120;BME280;12670;53.502;10.252;2022-09-12T04:04:35;101408.59;;;13.44;96.48
16120;BME280;12670;53.502;10.252;2022-09-12T04:07:39;101404.31;;;13.40;97.40
16120;BME280;12670;53.502;10.252;2022-09-12T04:10:42;101397.69;;;13.50;97.12
16120;BME280;12670;53.502;10.252;2022-09-12T04:13:45;101401.00;;;13.55;97.15
16120;BME280;12670;53.502;10.252;2022-09-12T04:16:48;101405.34;;;13.58;96.88
16120;BME280;12670;53.502;10.252;2022-09-12T04:19:50;101402.06;;;13.31;98.16
16120;BME280;12670;53.502;10.252;2022-09-12T04:22:54;101408.53;;;13.25;98.06
16120;BME280;12670;53.502;10.252;2022-09-12T04:25:58;101403.94;;;13.49;97.49
16120;BME280;12670;53.502;10.252;2022-09-12T04:29:01;101399.88;;;13.41;96.70
16120;BME280;12670;53.502;10.252;2022-09-12T04:32:04;101398.75;;;13.26;97.61
16120;BME280;12670;53.502;10.252;2022-09-12T04:35:07;101392.66;;;13.22;97.42
16120;BME280;12670;53.502;10.252;2022-09-12T04:38:13;101396.13;;;13.24;97.98
16120;BME280;12670;53.502;10.252;2022-09-12T04:41:17;101384.94;;;13.37;97.29
16120;BME280;12670;53.502;10.252;2022-09-12T04:44:20;101386.81;;;13.34;96.97
16120;BME280;12670;53.502;10.252;2022-09-12T04:47:22;101390.53;;;13.30;96.07
16120;BME280;12670;53.502;10.252;2022-09-12T04:50:25;101385.81;;;13.15;97.58
16120;BME280;12670;53.502;10.252;2022-09-12T04:53:29;101383.81;;;13.22;96.95
16120;BME280;12670;53.502;10.252;2022-09-12T04:56:35;101394.63;;;13.17;96.82
16120;BME280;12670;53.502;10.252;2022-09-12T04:59:38;101392.41;;;13.28;96.77
16120;BME280;12670;53.502;10.252;2022-09-12T05:02:41;101386.69;;;13.16;96.96
16120;BME280;12670;53.502;10.252;2022-09-12T05:05:43;101381.75;;;13.06;96.75
16120;BME280;12670;53.502;10.252;2022-09-12T05:08:47;101388.69;;;13.11;97.31
16120;BME280;12670;53.502;10.252;2022-09-12T05:11:50;101391.41;;;13.31;96.50
16120;BME280;12670;53.502;10.252;2022-09-12T05:15:08;101391.00;;;13.18;96.30
16120;BME280;12670;53.502;10.252;2022-09-12T05:18:11;101384.38;;;13.08;96.65
16120;BME280;12670;53.502;10.252;2022-09-12T05:21:15;101391.50;;;13.07;97.60
16120;BME280;12670;53.502;10.252;2022-09-12T05:24:19;101392.34;;;13.08;97.23
16120;BME280;12670;53.502;10.252;2022-09-12T05:27:21;101388.41;;;13.17;97.14
16120;BME280;12670;53.502;10.252;2022-09-12T05:30:24;101389.72;;;13.06;97.15
16120;BME280;12670;53.502;10.252;2022-09-12T05:33:27;101383.50;;;13.07;96.99
16120;BME280;12670;53.502;10.252;2022-09-12T05:36:29;101385.94;;;13.12;96.65
16120;BME280;12670;53.502;10.252;2022-09-12T05:39:34;101380.00;;;13.05;97.38
16120;BME280;12670;53.502;10.252;2022-09-12T05:42:36;101397.53;;;13.33;96.85
16120;BME280;12670;53.502;10.252;2022-09-12T05:45:39;101394.69;;;13.38;96.30
16120;BME280;12670;53.502;10.252;2022-09-12T05:48:43;101386.88;;;13.11;97.39
16120;BME280;12670;53.502;10.252;2022-09-12T05:51:46;101387.41;;;13.21;97.99
16120;BME280;12670;53.502;10.252;2022-09-12T05:54:50;101391.78;;;13.22;97.52
16120;BME280;12670;53.502;10.252;2022-09-12T05:57:53;101392.28;;;13.31;98.09
16120;BME280;12670;53.502;10.252;2022-09-12T06:01:00;101401.66;;;13.40;98.03
16120;BME280;12670;53.502;10.252;2022-09-12T06:04:04;101397.94;;;13.44;97.44
16120;BME280;12670;53.502;10.252;2022-09-12T06:07:07;101394.34;;;13.45;98.64
16120;BME280;12670;53.502;10.252;2022-09-12T06:10:11;101399.00;;;13.40;98.86
16120;BME280;12670;53.502;10.252;2022-09-12T06:13:14;101404.63;;;13.54;99.24
16120;BME280;12670;53.502;10.252;2022-09-12T06:16:18;101402.94;;;13.72;98.68
16120;BME280;12670;53.502;10.252;2022-09-12T06:19:21;101408.78;;;13.80;98.36
16120;BME280;12670;53.502;10.252;2022-09-12T06:22:25;101403.38;;;13.82;98.45
16120;BME280;12670;53.502;10.252;2022-09-12T06:25:29;101406.72;;;13.87;98.42
16120;BME280;12670;53.502;10.252;2022-09-12T06:28:33;101404.31;;;14.01;98.71
16120;BME280;12670;53.502;10.252;2022-09-12T06:31:37;101416.41;;;14.08;99.16
16120;BME280;12670;53.502;10.252;2022-09-12T06:34:41;101402.63;;;14.18;98.92
16120;BME280;12670;53.502;10.252;2022-09-12T06:37:44;101399.56;;;14.27;99.25
16120;BME280;12670;53.502;10.252;2022-09-12T06:40:48;101405.91;;;14.43;99.18
16120;BME280;12670;53.502;10.252;2022-09-12T06:43:52;101389.19;;;14.58;99.40
16120;BME280;12670;53.502;10.252;2022-09-12T06:46:55;101397.41;;;14.73;99.11
16120;BME280;12670;53.502;10.252;2022-09-12T06:49:58;101394.03;;;14.86;99.40
16120;BME280;12670;53.502;10.252;2022-09-12T06:53:01;101399.81;;;14.96;100.00
16120;BME280;12670;53.502;10.252;2022-09-12T06:56:08;101389.94;;;15.15;100.00
16120;BME280;12670;53.502;10.252;2022-09-12T06:59:11;101393.94;;;15.24;100.00
16120;BME280;12670;53.502;10.252;2022-09-12T07:02:13;101393.00;;;15.42;100.00
16120;BME280;12670;53.502;10.252;2022-09-12T07:05:16;101395.69;;;15.60;100.00
16120;BME280;12670;53.502;10.252;2022-09-12T07:08:19;101404.09;;;15.69;100.00
16120;BME280;12670;53.502;10.252;2022-09-12T07:11:24;101398.38;;;15.93;100.00
16120;BME280;12670;53.502;10.252;2022-09-12T07:14:27;101397.19;;;15.98;100.00
16120;BME280;12670;53.502;10.252;2022-09-12T07:17:29;101401.16;;;16.24;100.00
16120;BME280;12670;53.502;10.252;2022-09-12T07:20:32;101398.47;;;16.40;100.00
16120;BME280;12670;53.502;10.252;2022-09-12T07:23:34;101401.38;;;16.36;100.00
16120;BME280;12670;53.502;10.252;2022-09-12T07:26:39;101387.56;;;16.59;100.00
16120;BME280;12670;53.502;10.252;2022-09-12T07:29:42;101388.47;;;16.60;100.00
16120;BME280;12670;53.502;10.252;2022-09-12T07:32:50;101391.59;;;16.84;100.00
16120;BME280;12670;53.502;10.252;2022-09-12T07:35:53;101380.56;;;17.04;100.00
16120;BME280;12670;53.502;10.252;2022-09-12T07:38:56;101390.09;;;16.94;100.00
16120;BME280;12670;53.502;10.252;2022-09-12T07:42:01;101393.69;;;17.09;100.00
16120;BME280;12670;53.502;10.252;2022-09-12T07:45:04;101387.44;;;17.24;100.00
16120;BME280;12670;53.502;10.252;2022-09-12T07:48:06;101382.25;;;17.21;100.00
16120;BME280;12670;53.502;10.252;2022-09-12T07:51:10;101385.66;;;17.53;100.00
16120;BME280;12670;53.502;10.252;2022-09-12T07:54:13;101385.31;;;17.59;100.00
16120;BME280;12670;53.502;10.252;2022-09-12T07:57:17;101387.53;;;17.67;100.00
16120;BME280;12670;53.502;10.252;2022-09-12T08:00:20;101383.88;;;17.68;99.09
16120;BME280;12670;53.502;10.252;2022-09-12T08:03:22;101376.84;;;17.81;97.95
16120;BME280;12670;53.502;10.252;2022-09-12T08:06:26;101385.09;;;18.06;97.26
16120;BME280;12670;53.502;10.252;2022-09-12T08:09:30;101383.84;;;18.12;96.85
16120;BME280;12670;53.502;10.252;2022-09-12T08:12:34;101380.88;;;18.58;100.00
16120;BME280;12670;53.502;10.252;2022-09-12T08:15:37;101378.50;;;18.53;97.34
16120;BME280;12670;53.502;10.252;2022-09-12T08:18:39;101383.75;;;18.69;97.31
16120;BME280;12670;53.502;10.252;2022-09-12T08:21:42;101378.84;;;19.03;92.50
16120;BME280;12670;53.502;10.252;2022-09-12T08:24:45;101379.06;;;18.73;89.28
16120;BME280;12670;53.502;10.252;2022-09-12T08:27:48;101385.44;;;18.84;94.50
16120;BME280;12670;53.502;10.252;2022-09-12T08:30:51;101380.97;;;19.37;91.89
16120;BME280;12670;53.502;10.252;2022-09-12T08:33:55;101375.41;;;20.04;88.94
16120;BME280;12670;53.502;10.252;2022-09-12T08:36:59;101379.84;;;19.92;83.79
16120;BME280;12670;53.502;10.252;2022-09-12T08:40:01;101373.03;;;20.25;86.84
16120;BME280;12670;53.502;10.252;2022-09-12T08:43:16;101375.66;;;20.50;86.17
16120;BME280;12670;53.502;10.252;2022-09-12T08:46:26;101370.31;;;20.74;83.32
16120;BME280;12670;53.502;10.252;2022-09-12T08:49:32;101383.22;;;20.82;82.65
16120;BME280;12670;53.502;10.252;2022-09-12T08:52:39;101380.22;;;20.74;82.91
16120;BME280;12670;53.502;10.252;2022-09-12T08:55:49;101370.19;;;21.00;80.80
16120;BME280;12670;53.502;10.252;2022-09-12T08:58:55;101368.59;;;20.24;79.25
16120;BME280;12670;53.502;10.252;2022-09-12T09:01:58;101377.56;;;19.99;83.31
16120;BME280;12670;53.502;10.252;2022-09-12T09:05:13;101374.38;;;20.43;82.88
16120;BME280;12670;53.502;10.252;2022-09-12T09:08:31;101368.00;;;20.81;80.23
16120;BME280;12670;53.502;10.252;2022-09-12T09:11:52;101364.84;;;21.11;78.41
16120;BME280;12670;53.502;10.252;2022-09-12T09:15:13;101366.59;;;21.59;78.80
16120;BME280;12670;53.502;10.252;2022-09-12T09:18:23;101370.19;;;21.70;80.60
16120;BME280;12670;53.502;10.252;2022-09-12T09:21:32;101367.34;;;21.61;80.70
16120;BME280;12670;53.502;10.252;2022-09-12T09:24:42;101364.50;;;21.62;77.42
16120;BME280;12670;53.502;10.252;2022-09-12T09:27:52;101359.50;;;21.91;76.47
16120;BME280;12670;53.502;10.252;2022-09-12T09:30:56;101360.03;;;22.19;71.37
16120;BME280;12670;53.502;10.252;2022-09-12T09:33:59;101361.84;;;21.85;71.49
16120;BME280;12670;53.502;10.252;2022-09-12T09:37:10;101354.88;;;22.16;71.11
16120;BME280;12670;53.502;10.252;2022-09-12T09:40:20;101344.09;;;22.70;72.03
16120;BME280;12670;53.502;10.252;2022-09-12T09:43:25;101338.34;;;22.96;69.16
16120;BME280;12670;53.502;10.252;2022-09-12T09:46:31;101330.94;;;22.66;69.42
16120;BME280;12670;53.502;10.252;2022-09-12T09:49:34;101326.06;;;22.92;65.30
16120;BME280;12670;53.502;10.252;2022-09-12T09:52:37;101346.03;;;23.53;65.99
16120;BME280;12670;53.502;10.252;2022-09-12T09:55:41;101336.88;;;23.65;65.12
16120;BME280;12670;53.502;10.252;2022-09-12T09:58:44;101336.03;;;23.23;64.03
16120;BME280;12670;53.502;10.252;2022-09-12T10:01:50;101334.41;;;22.56;69.79
16120;BME280;12670;53.502;10.252;2022-09-12T10:04:56;101331.63;;;22.79;67.81
16120;BME280;12670;53.502;10.252;2022-09-12T10:08:00;101331.53;;;22.15;68.32
16120;BME280;12670;53.502;10.252;2022-09-12T10:11:05;101331.28;;;22.40;69.64
16120;BME280;12670;53.502;10.252;2022-09-12T10:14:27;101324.75;;;21.98;69.02
16120;BME280;12670;53.502;10.252;2022-09-12T10:17:38;101328.09;;;22.13;68.35
16120;BME280;12670;53.502;10.252;2022-09-12T10:20:44;101334.28;;;22.58;71.19
16120;BME280;12670;53.502;10.252;2022-09-12T10:23:51;101331.31;;;23.04;72.10
16120;BME280;12670;53.502;10.252;2022-09-12T10:26:56;101332.97;;;23.37;70.21
16120;BME280;12670;53.502;10.252;2022-09-12T10:30:01;101324.69;;;22.97;66.31
16120;BME280;12670;53.502;10.252;2022-09-12T10:33:07;101324.97;;;22.94;67.49
16120;BME280;12670;53.502;10.252;2022-09-12T10:36:14;101325.69;;;23.59;66.00
16120;BME280;12670;53.502;10.252;2022-09-12T10:39:18;101315.06;;;23.98;67.25
16120;BME280;12670;53.502;10.252;2022-09-12T10:42:47;101313.03;;;23.90;65.93
16120;BME280;12670;53.502;10.252;2022-09-12T10:45:50;101308.59;;;24.29;66.71
16120;BME280;12670;53.502;10.252;2022-09-12T10:49:13;101307.66;;;24.00;64.05
16120;BME280;12670;53.502;10.252;2022-09-12T10:52:19;101304.75;;;23.82;64.77
16120;BME280;12670;53.502;10.252;2022-09-12T10:55:28;101309.81;;;23.24;64.06
16120;BME280;12670;53.502;10.252;2022-09-12T10:58:45;101304.44;;;23.75;67.95
16120;BME280;12670;53.502;10.252;2022-09-12T11:01:56;101297.91;;;24.28;65.49
16120;BME280;12670;53.502;10.252;2022-09-12T11:05:07;101301.66;;;23.96;62.85
16120;BME280;12670;53.502;10.252;2022-09-12T11:11:56;101293.75;;;24.24;61.96
16120;BME280;12670;53.502;10.252;2022-09-12T11:15:15;101293.75;;;24.24;59.03
16120;BME280;12670;53.502;10.252;2022-09-12T11:18:36;101291.28;;;24.70;59.74
16120;BME280;12670;53.502;10.252;2022-09-12T11:22:00;101290.84;;;24.75;56.36
16120;BME280;12670;53.502;10.252;2022-09-12T11:25:12;101277.75;;;24.20;53.37
16120;BME280;12670;53.502;10.252;2022-09-12T11:28:27;101284.47;;;23.55;55.95
16120;BME280;12670;53.502;10.252;2022-09-12T11:31:47;101283.41;;;24.08;59.26
16120;BME280;12670;53.502;10.252;2022-09-12T11:34:58;101276.03;;;24.10;58.92
16120;BME280;12670;53.502;10.252;2022-09-12T11:38:27;101281.06;;;23.84;54.74
16120;BME280;12670;53.502;10.252;2022-09-12T11:41:35;101270.94;;;23.86;56.59
16120;BME280;12670;53.502;10.252;2022-09-12T11:44:40;101272.78;;;23.76;55.36
16120;BME280;12670;53.502;10.252;2022-09-12T11:47:48;101277.94;;;23.88;58.66
16120;BME280;12670;53.502;10.252;2022-09-12T11:50:54;101269.41;;;23.93;58.07
16120;BME280;12670;53.502;10.252;2022-09-12T11:54:08;101268.78;;;24.30;57.70
16120;BME280;12670;53.502;10.252;2022-09-12T11:57:15;101266.81;;;23.91;53.11
16120;BME280;12670;53.502;10.252;2022-09-12T12:00:21;101266.63;;;24.24;57.54
16120;BME280;12670;53.502;10.252;2022-09-12T12:03:29;101262.97;;;24.44;54.53
16120;BME280;12670;53.502;10.252;2022-09-12T12:06:43;101267.63;;;24.23;52.79
16120;BME280;12670;53.502;10.252;2022-09-12T12:09:50;101261.03;;;24.15;55.62
16120;BME280;12670;53.502;10.252;2022-09-12T12:12:54;101264.66;;;23.76;53.56
16120;BME280;12670;53.502;10.252;2022-09-12T12:15:59;101255.00;;;23.92;53.09
16120;BME280;12670;53.502;10.252;2022-09-12T12:19:08;101256.41;;;24.37;53.51
16120;BME280;12670;53.502;10.252;2022-09-12T12:22:22;101258.69;;;24.41;54.12
16120;BME280;12670;53.502;10.252;2022-09-12T12:25:39;101255.38;;;24.28;54.05
16120;BME280;12670;53.502;10.252;2022-09-12T12:28:56;101252.69;;;24.38;55.93
16120;BME280;12670;53.502;10.252;2022-09-12T12:32:20;101250.00;;;24.48;54.51
16120;BME280;12670;53.502;10.252;2022-09-12T12:35:40;101240.44;;;24.92;54.31
16120;BME280;12670;53.502;10.252;2022-09-12T12:38:43;101236.97;;;24.90;54.06
16120;BME280;12670;53.502;10.252;2022-09-12T12:41:47;101239.69;;;25.09;51.91
16120;BME280;12670;53.502;10.252;2022-09-12T12:44:50;101238.28;;;24.66;51.06
16120;BME280;12670;53.502;10.252;2022-09-12T12:47:54;101228.63;;;25.40;51.65
16120;BME280;12670;53.502;10.252;2022-09-12T12:54:50;101239.50;;;25.20;50.25
16120;BME280;12670;53.502;10.252;2022-09-12T12:57:55;101234.22;;;25.66;52.91
16120;BME280;12670;53.502;10.252;2022-09-12T13:01:09;101223.91;;;25.69;50.69
16120;BME280;12670;53.502;10.252;2022-09-12T13:04:14;101219.09;;;25.91;52.75
16120;BME280;12670;53.502;10.252;2022-09-12T13:07:31;101216.09;;;25.94;50.45
16120;BME280;12670;53.502;10.252;2022-09-12T13:10:35;101213.16;;;25.68;52.69
16120;BME280;12670;53.502;10.252;2022-09-12T13:13:41;101208.59;;;25.41;53.94
16120;BME280;12670;53.502;10.252;2022-09-12T13:16:52;101215.56;;;24.67;54.88
16120;BME280;12670;53.502;10.252;2022-09-12T13:20:18;101203.00;;;24.76;54.62
16120;BME280;12670;53.502;10.252;2022-09-12T13:23:31;101195.31;;;24.62;53.21
16120;BME280;12670;53.502;10.252;2022-09-12T13:26:39;101195.31;;;24.52;55.61
16120;BME280;12670;53.502;10.252;2022-09-12T13:29:43;101190.19;;;24.59;56.33
16120;BME280;12670;53.502;10.252;2022-09-12T13:32:46;101187.63;;;24.57;55.75
16120;BME280;12670;53.502;10.252;2022-09-12T13:35:58;101181.88;;;24.51;56.42
16120;BME280;12670;53.502;10.252;2022-09-12T13:39:14;101182.19;;;24.38;56.11
16120;BME280;12670;53.502;10.252;2022-09-12T13:42:36;101163.03;;;24.10;57.31
16120;BME280;12670;53.502;10.252;2022-09-12T13:45:42;101167.59;;;24.00;57.52
16120;BME280;12670;53.502;10.252;2022-09-12T13:48:47;101161.50;;;23.67;58.24
16120;BME280;12670;53.502;10.252;2022-09-12T13:51:57;101159.81;;;23.66;56.97
16120;BME280;12670;53.502;10.252;2022-09-12T13:55:06;101154.41;;;23.86;57.06
16120;BME280;12670;53.502;10.252;2022-09-12T13:58:15;101154.75;;;24.12;56.11
16120;BME280;12670;53.502;10.252;2022-09-12T14:01:21;101143.50;;;24.16;55.78
16120;BME280;12670;53.502;10.252;2022-09-12T14:04:25;101137.78;;;24.00;57.60
16120;BME280;12670;53.502;10.252;2022-09-12T14:07:51;101137.91;;;23.99;55.91
16120;BME280;12670;53.502;10.252;2022-09-12T14:10:56;101124.91;;;24.02;55.53
16120;BME280;12670;53.502;10.252;2022-09-12T14:14:03;101122.38;;;23.51;56.66
16120;BME280;12670;53.502;10.252;2022-09-12T14:17:15;101126.25;;;23.58;55.49
16120;BME280;12670;53.502;10.252;2022-09-12T14:20:24;101115.75;;;23.24;57.95
16120;BME280;12670;53.502;10.252;2022-09-12T14:23:29;101123.81;;;23.14;58.11
16120;BME280;12670;53.502;10.252;2022-09-12T14:26:33;101124.34;;;23.39;60.74
16120;BME280;12670;53.502;10.252;2022-09-12T14:29:37;101124.94;;;23.42;60.45
16120;BME280;12670;53.502;10.252;2022-09-12T14:33:01;101114.41;;;23.49;59.43
16120;BME280;12670;53.502;10.252;2022-09-12T14:36:09;101113.19;;;23.63;56.50
16120;BME280;12670;53.502;10.252;2022-09-12T14:39:17;101109.88;;;23.59;57.59
16120;BME280;12670;53.502;10.252;2022-09-12T14:42:25;101113.41;;;23.10;56.96
16120;BME280;12670;53.502;10.252;2022-09-12T14:45:31;101110.59;;;23.21;59.69
16120;BME280;12670;53.502;10.252;2022-09-12T14:48:37;101109.75;;;23.21;57.86
16120;BME280;12670;53.502;10.252;2022-09-12T14:51:52;101108.88;;;23.10;59.74
16120;BME280;12670;53.502;10.252;2022-09-12T14:54:57;101111.13;;;23.05;57.75
16120;BME280;12670;53.502;10.252;2022-09-12T14:58:14;101107.59;;;23.14;57.63
16120;BME280;12670;53.502;10.252;2022-09-12T15:01:24;101107.00;;;23.11;58.36
16120;BME280;12670;53.502;10.252;2022-09-12T15:04:39;101100.38;;;22.94;61.26
16120;BME280;12670;53.502;10.252;2022-09-12T15:07:43;101100.66;;;22.91;61.03
16120;BME280;12670;53.502;10.252;2022-09-12T15:10:47;101101.06;;;22.66;58.88
16120;BME280;12670;53.502;10.252;2022-09-12T15:13:50;101098.41;;;22.75;61.72
16120;BME280;12670;53.502;10.252;2022-09-12T15:16:52;101105.22;;;22.70;60.76
16120;BME280;12670;53.502;10.252;2022-09-12T15:19:56;101096.97;;;22.71;59.77
16120;BME280;12670;53.502;10.252;2022-09-12T15:22:59;101088.25;;;22.68;60.53
16120;BME280;12670;53.502;10.252;2022-09-12T15:26:01;101073.88;;;22.67;64.91
16120;BME280;12670;53.502;10.252;2022-09-12T15:29:04;101071.44;;;22.43;63.34
16120;BME280;12670;53.502;10.252;2022-09-12T15:32:13;101065.94;;;22.24;63.04
16120;BME280;12670;53.502;10.252;2022-09-12T15:35:31;101066.91;;;22.44;65.59
16120;BME280;12670;53.502;10.252;2022-09-12T15:38:34;101062.69;;;22.30;66.13
16120;BME280;12670;53.502;10.252;2022-09-12T15:41:38;101054.31;;;22.33;64.22
16120;BME280;12670;53.502;10.252;2022-09-12T15:44:41;101056.50;;;22.18;64.20
16120;BME280;12670;53.502;10.252;2022-09-12T15:47:43;101048.38;;;22.39;61.69
16120;BME280;12670;53.502;10.252;2022-09-12T15:50:47;101042.78;;;22.31;62.26
16120;BME280;12670;53.502;10.252;2022-09-12T15:53:50;101041.38;;;22.57;59.85
16120;BME280;12670;53.502;10.252;2022-09-12T15:56:53;101039.94;;;22.53;61.50
16120;BME280;12670;53.502;10.252;2022-09-12T15:59:55;101046.88;;;22.46;60.69
16120;BME280;12670;53.502;10.252;2022-09-12T16:02:58;101037.50;;;22.29;58.73
16120;BME280;12670;53.502;10.252;2022-09-12T16:06:03;101039.72;;;22.45;60.33
16120;BME280;12670;53.502;10.252;2022-09-12T16:09:06;101037.56;;;22.39;64.15
16120;BME280;12670;53.502;10.252;2022-09-12T16:12:08;101033.75;;;22.21;62.70
16120;BME280;12670;53.502;10.252;2022-09-12T16:15:13;101031.50;;;22.26;62.99